• Join FlightAware (Why Join?)
  • Login
  • US Flag 
08:11PM EST


 

Airport Tracker/Info


-or-


 

Live Flight TrackerFlight Track Log ✈ AWE1940 ✈ 09-Aug-2013 ✈ KCLT - KALB

Flight Track Log - Related Links

Times and Time Zones

All times are in EDT time to prevent confusion due to time zone crossing. See the AWE1940 flight status page for this flight to view local times or setup timezone preferences in your user account.

Time Position Orientation Groundspeed Altitude Reporting Facility
EDT Latitude Longitude Course Direction KTS MPH feet Rate Location/Type
10:28PM 35.1950 -80.9356 177° South 174 200 1,600  Level Atlanta Center
10:28PM 35.1719 -80.9339 177° South 173 199 2,800 1,920 Climbing Atlanta Center
10:29PM 35.1392 -80.8742 124° Southeast 260 299 4,600 2,040 Climbing Atlanta Center
10:30PM 35.1786 -80.7861 61° Northeast 289 333 7,100 2,340 Climbing Atlanta Center
10:31PM 35.2078 -80.7036 67° East 294 338 9,500 2,160 Climbing Atlanta Center
10:32PM 35.2467 -80.6081 63° Northeast 304 350 11,500 1,980 Climbing Atlanta Center
10:33PM 35.2917 -80.4992 63° Northeast 331 381 13,500 2,220 Climbing Atlanta Center
10:34PM 35.3383 -80.3803 64° Northeast 364 419 16,000 2,340 Climbing Atlanta Center
10:36PM 35.4100 -80.1997 64° Northeast 384 442 19,400 2,100 Climbing Washington Center
10:37PM 35.4553 -80.0517 69° East 399 459 21,400 1,800 Climbing Washington Center
10:38PM 35.4869 -79.9311 72° East 405 466 23,000 900 Climbing Washington Center
10:39PM 35.5233 -79.7903 72° East 416 479 23,300 900 Climbing Washington Center
10:40PM 35.5386 -79.6431 83° East 423 487 24,900 1,500 Climbing Washington Center
10:41PM 35.5333 -79.4894 92° East 433 498 26,300 1,020 Climbing Washington Center
10:42PM 35.6081 -79.3731 52° Northeast 426 490 27,000 360 Climbing Washington Center
10:43PM 35.7325 -79.3356 14° North 383 441 27,100 540 Climbing Washington Center
10:44PM 35.8550 -79.2850 18° North 414 476 28,100 1,200 Climbing Washington Center
10:45PM 35.9797 -79.2317 19° North 442 509 29,500 1,380 Climbing Washington Center
10:46PM 36.1000 -79.1858 17° North 453 521 31,000 720 Climbing Washington Center
10:47PM 36.2225 -79.1347 19° North 453 521 31,000  Level Washington Center
10:48PM 36.3431 -79.0861 18° North 453 521 31,000  Level Washington Center
10:49PM 36.4653 -79.0372 18° North 448 516 31,000 480 Level Washington Center
10:50PM 36.5878 -78.9911 17° North 453 521 32,000 480 Climbing Washington Center
10:51PM 36.7019 -78.9339 22° Northeast 448 516 32,000  Level Washington Center
10:52PM 36.8222 -78.8844 18° North 448 516 32,000 300 Level Washington Center
10:53PM 36.9594 -78.8306 17° North 456 525 32,700 900 Climbing Washington Center
10:54PM 37.0797 -78.7811 18° North 461 531 33,900 960 Climbing Washington Center
10:55PM 37.2019 -78.7286 19° North 461 531 34,700 540 Climbing Washington Center
10:56PM 37.3094 -78.6836 18° North 461 531 35,000 120 Climbing Washington Center
10:57PM 37.4319 -78.6336 18° North 461 531 35,000  Level Washington Center
10:58PM 37.5542 -78.5808 19° North 453 521 35,000  Level Washington Center
10:59PM 37.6869 -78.5283 17° North 459 528 35,000  Level Washington Center
11:00PM 37.8069 -78.4753 19° North 453 521 35,000  Level Washington Center
11:01PM 37.9292 -78.4272 17° North 448 516 35,000  Level Washington Center
11:02PM 38.0428 -78.3786 19° North 448 516 35,000  Level Washington Center
11:03PM 38.1631 -78.3250 19° North 448 516 35,000  Level Washington Center
11:04PM 38.2831 -78.2739 18° North 448 516 35,000  Level Washington Center
11:05PM 38.4031 -78.2225 19° North 448 516 35,000  Level Washington Center
11:06PM 38.5250 -78.1686 19° North 448 516 35,000  Level Washington Center
11:07PM 38.6450 -78.1169 19° North 448 516 35,000  Level Washington Center
11:08PM 38.7650 -78.0650 19° North 453 521 35,000  Level Washington Center
11:09PM 38.8744 -78.0181 18° North 453 521 35,000  Level Washington Center
11:10PM 39.0003 -77.9689 17° North 458 527 35,000  Level Washington Center
11:11PM 39.1203 -77.9111 20° North 458 527 35,000  Level Washington Center
11:12PM 39.2422 -77.8589 18° North 463 533 35,000  Level Washington Center
11:13PM 39.3661 -77.8036 19° North 463 533 35,000  Level Washington Center
11:14PM 39.5692 -77.7147 19° North 470 541 35,000  Level New York Center
11:15PM 39.6892 -77.6617 19° North 475 547 35,000  Level New York Center
11:16PM 39.8092 -77.6058 20° North 464 534 35,000  Level New York Center
11:17PM 39.9333 -77.5503 19° North 464 534 35,000  Level New York Center
11:18PM 40.0575 -77.4944 19° North 464 534 35,000  Level New York Center
11:19PM 40.1758 -77.4297 23° Northeast 458 527 35,000  Level New York Center
11:20PM 40.2875 -77.3317 34° Northeast 464 534 35,000  Level New York Center
11:21PM 40.3822 -77.2425 36° Northeast 470 541 35,000  Level New York Center
11:22PM 40.4919 -77.1408 35° Northeast 475 547 35,000  Level New York Center
11:23PM 40.5994 -77.0414 35° Northeast 475 547 35,000  Level New York Center
11:24PM 40.7089 -76.9392 35° Northeast 475 547 35,000  Level New York Center
11:25PM 40.8164 -76.8364 36° Northeast 475 547 35,000 -120 Level New York Center
11:26PM 40.9278 -76.7336 35° Northeast 475 547 34,800 -660 Descending New York Center
11:27PM 41.0394 -76.6281 35° Northeast 475 547 33,800 -1,020 Descending New York Center
11:28PM 41.1464 -76.5269 35° Northeast 475 547 32,800 -1,260 Descending New York Center
11:29PM 41.2533 -76.4283 35° Northeast 475 547 31,300 -1,740 Descending New York Center
11:30PM 41.3778 -76.3089 36° Northeast 480 552 29,300 -2,160 Descending New York Center
11:31PM 41.4911 -76.1992 36° Northeast 502 578 27,100 -2,100 Descending New York Center
11:33PM 41.6617 -76.0333 36° Northeast 488 562 24,000 -1,200 Descending Boston Center
11:34PM 41.7692 -75.9281 36° Northeast 482 555 24,000  Level Boston Center
11:35PM 41.8650 -75.7967 46° Northeast 482 555 24,000  Level Boston Center
11:36PM 41.9383 -75.6358 58° Northeast 487 560 24,000  Level Boston Center
11:37PM 42.0097 -75.4747 59° Northeast 493 567 24,000  Level Boston Center
11:38PM 42.0847 -75.3131 58° Northeast 498 573 24,000 -120 Level Boston Center
11:39PM 42.1553 -75.1539 59° Northeast 498 573 23,800 -1,140 Descending Boston Center
11:40PM 42.2233 -75.0056 58° Northeast 489 563 21,800 -2,340 Descending Boston Center
11:41PM 42.2892 -74.8539 60° Northeast 474 545 19,200 -2,520 Descending Boston Center
11:42PM 42.3442 -74.7239 60° Northeast 450 518 16,800 -2,580 Descending Boston Center
11:43PM 42.4072 -74.5828 59° Northeast 420 483 14,200 -2,340 Descending Boston Center
11:44PM 42.4617 -74.4553 60° Northeast 410 472 12,100 -2,100 Descending Boston Center
11:45PM 42.4936 -74.3042 74° East 382 440 9,900 -1,620 Descending Boston Center
11:46PM 42.5078 -74.1892 80° East 361 415 9,000 -1,320 Descending Boston Center
11:47PM 42.5242 -74.0683 80° East 311 358 7,400 -1,800 Descending Boston Center
11:48PM 42.5361 -73.9672 81° East 295 339 5,500 -1,860 Descending Boston Center
11:49PM 42.5481 -73.8519 82° East 289 333 3,700 -1,560 Descending Boston Center
11:50PM 42.5819 -73.7908 53° Northeast 212 244 2,400 -900 Descending Boston Center
11:51PM 42.6256 -73.8003 351° North 180 207 2,000 -480 Descending Boston Center
11:52PM 42.6797 -73.8042 357° North 125 144 1,400 -660 Descending Boston Center
11:53PM 42.7172 -73.8050 359° North 133 153 700 -720 Descending Boston Center